createdAt,value
2023-03-19T00:01:06.519Z,100885.81
2023-03-19T00:03:36.954Z,100880.59
2023-03-19T00:06:05.766Z,100880.63
2023-03-19T00:08:34.122Z,100770.16
2023-03-19T00:11:08.503Z,100890.44
2023-03-19T00:13:37.057Z,100894.84
2023-03-19T00:16:06.251Z,100893.09
2023-03-19T00:18:36.386Z,100889.59
2023-03-19T00:21:05.080Z,100896.56
2023-03-19T00:23:33.535Z,100899.22
2023-03-19T00:26:01.925Z,100902.78
2023-03-19T00:28:30.271Z,100909.94
2023-03-19T00:30:59.237Z,100904.69
2023-03-19T00:33:27.657Z,100910.16
2023-03-19T00:35:58.826Z,100905.91
2023-03-19T00:38:27.237Z,100909.47
2023-03-19T00:40:55.613Z,100912.13
2023-03-19T00:43:24.239Z,100907.72
2023-03-19T00:45:52.759Z,100910.34
2023-03-19T00:48:21.398Z,100913.06
2023-03-19T00:50:50.141Z,100915.75
2023-03-19T00:53:20.673Z,100909.56
2023-03-19T00:55:49.221Z,100904.31
2023-03-19T00:58:17.709Z,100915.66
2023-03-19T01:00:46.221Z,100919.19
2023-03-19T01:03:15.987Z,100923.63
2023-03-19T01:05:44.378Z,100931.59
2023-03-19T01:08:14.419Z,100918.41
2023-03-19T01:10:44.909Z,100914.03
2023-03-19T01:13:13.885Z,100931.75
2023-03-19T01:15:44.733Z,100926.38
2023-03-19T01:18:14.038Z,100930.88
2023-03-19T01:20:43.253Z,100934.41
2023-03-19T01:23:11.852Z,100932.63
2023-03-19T01:25:41.599Z,100934.44
2023-03-19T01:28:11.311Z,100927.47
2023-03-19T01:30:41.765Z,100917.91
2023-03-19T01:33:30.840Z,100925.88
2023-03-19T01:36:03.631Z,100907.44
2023-03-19T01:38:39.641Z,100916.19
2023-03-19T01:41:14.366Z,100914.44
2023-03-19T01:43:44.147Z,100924.16
2023-03-19T01:46:32.601Z,100920.69
2023-03-19T01:49:21.569Z,100926.06
2023-03-19T01:51:57.009Z,100921.66
2023-03-19T01:54:33.962Z,100817.19
2023-03-19T01:57:18.609Z,100913.78
2023-03-19T02:00:10.757Z,100921.78
2023-03-19T02:02:48.651Z,100929.81
2023-03-19T02:05:39.300Z,100934.25
2023-03-19T02:08:16.076Z,100925.44
2023-03-19T02:10:48.066Z,100915.88
2023-03-19T02:13:17.123Z,100929.91
2023-03-19T02:15:47.084Z,100922.88
2023-03-19T02:18:16.131Z,100929.09
2023-03-19T02:20:52.373Z,100917.66
2023-03-19T02:23:34.324Z,100929.09
2023-03-19T02:26:10.481Z,100926.47
2023-03-19T02:28:42.373Z,100913.28
2023-03-19T02:31:12.938Z,100924.66
2023-03-19T02:33:41.781Z,100918.59
2023-03-19T02:36:14.850Z,100921.28
2023-03-19T02:38:45.189Z,100918.66
2023-03-19T02:41:14.976Z,100891.38
2023-03-19T02:43:44.358Z,100929.19
2023-03-19T02:46:14.726Z,100909.16
2023-03-19T02:48:43.948Z,100932.00
2023-03-19T02:51:13.517Z,100928.44
2023-03-19T02:53:42.036Z,100922.41
2023-03-19T02:56:10.652Z,100932.16
2023-03-19T02:58:40.668Z,100931.34
2023-03-19T03:01:09.335Z,100931.38
2023-03-19T03:03:37.779Z,100938.31
2023-03-19T03:06:07.035Z,100933.94
2023-03-19T03:08:36.765Z,100929.50
2023-03-19T03:11:05.592Z,100928.72
2023-03-19T03:13:33.970Z,100935.75
2023-03-19T03:16:05.437Z,100939.25
2023-03-19T03:18:33.840Z,100934.88
2023-03-19T03:21:02.241Z,100919.81
2023-03-19T03:23:30.624Z,100933.97
2023-03-19T03:26:00.782Z,100934.00
2023-03-19T03:28:29.465Z,100933.97
2023-03-19T03:31:01.060Z,100936.63
2023-03-19T03:33:31.042Z,100934.88
2023-03-19T03:35:59.765Z,100927.00
2023-03-19T03:38:28.704Z,100919.16
2023-03-19T03:40:57.120Z,100933.28
2023-03-19T03:43:27.677Z,100935.00
2023-03-19T03:45:56.299Z,100940.41
2023-03-19T03:48:25.120Z,100936.84
2023-03-19T03:50:54.882Z,100936.78
2023-03-19T03:53:27.862Z,100938.56
2023-03-19T03:55:56.311Z,100919.22
2023-03-19T03:58:26.944Z,100948.19
2023-03-19T04:00:56.845Z,100949.06
2023-03-19T04:03:27.206Z,100950.84
2023-03-19T04:05:57.321Z,100949.03
2023-03-19T04:08:25.700Z,100953.50
2023-03-19T04:10:54.152Z,100958.91
2023-03-19T04:13:22.649Z,100956.34
2023-03-19T04:15:53.785Z,100949.31
2023-03-19T04:18:23.706Z,100958.13
2023-03-19T04:20:53.090Z,100950.25
2023-03-19T04:23:22.799Z,100929.16
2023-03-19T04:25:51.683Z,100953.81
2023-03-19T04:28:20.304Z,100956.47
2023-03-19T04:30:48.776Z,100953.88
2023-03-19T04:33:17.539Z,100962.69
2023-03-19T04:35:46.318Z,100966.25
2023-03-19T04:38:14.823Z,100966.25
2023-03-19T04:40:44.534Z,100964.47
2023-03-19T04:43:13.136Z,100958.31
2023-03-19T04:45:45.776Z,100981.22
2023-03-19T04:48:14.186Z,100973.31
2023-03-19T04:50:42.875Z,100991.84
2023-03-19T04:53:11.472Z,100966.25
2023-03-19T04:55:40.234Z,100988.28
2023-03-19T04:58:16.420Z,100990.03
2023-03-19T05:00:47.469Z,100987.41
2023-03-19T05:03:20.540Z,101002.47
2023-03-19T05:05:49.436Z,100999.84
2023-03-19T05:08:18.028Z,100994.53
2023-03-19T05:10:47.285Z,101003.38
2023-03-19T05:13:18.073Z,100998.09
2023-03-19T05:15:56.055Z,101006.06
2023-03-19T05:18:24.825Z,101006.09
2023-03-19T05:20:54.667Z,101019.34
2023-03-19T05:23:24.481Z,101023.72
2023-03-19T05:26:03.935Z,101017.53
2023-03-19T05:28:52.116Z,101020.25
2023-03-19T05:31:26.669Z,101015.88
2023-03-19T05:33:56.261Z,101023.81
2023-03-19T05:36:25.107Z,101017.69
2023-03-19T05:38:59.817Z,101033.50
2023-03-19T05:41:34.850Z,101033.53
2023-03-19T05:44:08.110Z,101035.28
2023-03-19T05:46:46.611Z,101029.09
2023-03-19T05:49:15.637Z,101015.03
2023-03-19T05:51:44.046Z,101033.53
2023-03-19T05:54:12.851Z,101040.59
2023-03-19T05:56:50.674Z,101034.44
2023-03-19T05:59:35.931Z,100994.84
2023-03-19T06:02:17.709Z,101030.88
2023-03-19T06:04:46.816Z,101037.03
2023-03-19T06:07:16.704Z,101030.91
2023-03-19T06:09:45.405Z,101032.69
2023-03-19T06:12:14.565Z,101045.88
2023-03-19T06:15:19.696Z,101046.75
2023-03-19T06:17:57.873Z,101044.19
2023-03-19T06:20:26.491Z,101050.28
2023-03-19T06:22:54.982Z,100948.22
2023-03-19T06:25:24.071Z,101053.91
2023-03-19T06:27:53.194Z,101047.66
2023-03-19T06:30:29.380Z,101060.00
2023-03-19T06:33:00.841Z,101069.72
2023-03-19T06:35:30.159Z,101073.25
2023-03-19T06:37:58.621Z,101073.22
2023-03-19T06:40:27.040Z,101080.25
2023-03-19T06:42:55.444Z,101066.19
2023-03-19T06:45:23.993Z,101082.91
2023-03-19T06:47:53.858Z,101047.66
2023-03-19T06:50:22.389Z,101081.13
2023-03-19T06:52:50.791Z,101078.50
2023-03-19T06:55:20.502Z,101030.06
2023-03-19T06:57:51.238Z,101089.97
2023-03-19T07:00:20.765Z,101060.88
2023-03-19T07:02:49.457Z,101084.63
2023-03-19T07:05:19.328Z,101089.06
2023-03-19T07:07:47.743Z,101088.13
2023-03-19T07:10:16.120Z,101092.56
2023-03-19T07:12:44.422Z,101098.75
2023-03-19T07:15:13.865Z,101096.97
2023-03-19T07:17:42.345Z,101108.41
2023-03-19T07:20:12.926Z,101115.44
2023-03-19T07:22:42.684Z,101104.88
2023-03-19T07:25:11.755Z,101120.72
2023-03-19T07:27:40.182Z,101088.13
2023-03-19T07:30:10.965Z,101126.00
2023-03-19T07:32:39.450Z,101126.00
2023-03-19T07:35:10.450Z,101127.75
2023-03-19T07:37:38.970Z,101140.09
2023-03-19T07:40:10.987Z,101129.53
2023-03-19T07:42:39.377Z,101132.16
2023-03-19T07:45:09.564Z,101136.59
2023-03-19T07:47:37.981Z,101134.81
2023-03-19T07:50:07.898Z,101134.81
2023-03-19T07:52:36.364Z,101147.13
2023-03-19T07:55:05.382Z,101146.25
2023-03-19T07:57:35.146Z,101157.72
2023-03-19T08:00:03.674Z,101145.38
2023-03-19T08:02:42.804Z,101154.25
2023-03-19T08:05:12.348Z,101142.75
2023-03-19T08:07:41.168Z,101162.13
2023-03-19T08:10:11.508Z,101160.38
2023-03-19T08:12:42.183Z,101132.19
2023-03-19T08:15:12.837Z,101168.34
2023-03-19T08:17:43.031Z,101157.75
2023-03-19T08:20:16.344Z,101169.25
2023-03-19T08:22:44.977Z,101165.69
2023-03-19T08:25:14.173Z,101138.41
2023-03-19T08:27:51.296Z,101178.03
2023-03-19T08:30:22.446Z,101170.94
2023-03-19T08:32:51.221Z,101185.97
2023-03-19T08:35:19.731Z,101192.97
2023-03-19T08:37:48.217Z,101197.34
2023-03-19T08:40:16.544Z,101192.94
2023-03-19T08:42:46.402Z,101194.72
2023-03-19T08:45:16.301Z,101200.06
2023-03-19T08:47:45.381Z,101197.38
2023-03-19T08:50:13.990Z,101187.66
2023-03-19T08:52:42.766Z,101076.69
2023-03-19T08:55:11.798Z,101207.06
2023-03-19T08:57:40.230Z,101214.13
2023-03-19T09:00:12.501Z,101167.44
2023-03-19T09:02:40.860Z,101213.22
2023-03-19T09:05:10.146Z,101217.69
2023-03-19T09:07:38.520Z,101205.31
2023-03-19T09:10:08.418Z,101206.09
2023-03-19T09:12:36.918Z,101223.78
2023-03-19T09:15:06.693Z,101218.47
2023-03-19T09:17:36.999Z,101215.78
2023-03-19T09:20:07.447Z,101098.63
2023-03-19T09:22:35.781Z,101224.66
2023-03-19T09:25:04.552Z,101219.28
2023-03-19T09:27:33.065Z,101219.31
2023-03-19T09:30:01.464Z,101230.00
2023-03-19T09:32:30.093Z,101217.59
2023-03-19T09:34:59.750Z,101265.28
2023-03-19T09:37:28.182Z,101230.78
2023-03-19T09:39:57.470Z,101243.06
2023-03-19T09:42:46.078Z,101255.44
2023-03-19T09:45:18.115Z,101236.91
2023-03-19T09:47:48.667Z,101268.59
2023-03-19T09:50:22.431Z,101246.63
2023-03-19T09:52:59.475Z,101238.66
2023-03-19T09:55:41.771Z,101260.66
2023-03-19T09:58:17.171Z,101273.00
2023-03-19T10:00:50.623Z,101273.84
2023-03-19T10:03:44.952Z,101280.97
2023-03-19T10:06:29.360Z,101272.97
2023-03-19T10:09:19.700Z,101276.53
2023-03-19T10:12:08.583Z,101285.38
2023-03-19T10:15:05.738Z,101284.44
2023-03-19T10:17:38.177Z,101291.50
2023-03-19T10:20:14.363Z,101283.63
2023-03-19T10:22:50.294Z,101291.56
2023-03-19T10:25:24.840Z,101291.53
2023-03-19T10:28:01.477Z,101303.94
2023-03-19T10:30:34.243Z,101306.59
2023-03-19T10:33:18.378Z,101302.16
2023-03-19T10:35:49.572Z,101306.53
2023-03-19T10:38:24.461Z,101311.84
2023-03-19T10:41:07.174Z,101309.22
2023-03-19T10:43:35.928Z,101314.53
2023-03-19T10:46:04.824Z,101306.53
2023-03-19T10:48:34.760Z,101312.72
2023-03-19T10:51:06.668Z,101312.72
2023-03-19T10:53:38.823Z,101309.16
2023-03-19T10:56:16.786Z,101312.69
2023-03-19T10:58:59.222Z,101288.88
2023-03-19T11:01:35.147Z,101311.75
2023-03-19T11:04:13.284Z,101316.16
2023-03-19T11:06:42.000Z,101325.88
2023-03-19T11:09:20.811Z,101324.16
2023-03-19T11:11:51.167Z,101320.63
2023-03-19T11:14:23.290Z,101332.13
2023-03-19T11:16:57.658Z,101325.94
2023-03-19T11:19:29.605Z,101328.53
2023-03-19T11:22:10.006Z,101331.19
2023-03-19T11:24:42.595Z,101323.22
2023-03-19T11:27:12.509Z,101337.34
2023-03-19T11:29:44.776Z,101329.34
2023-03-19T11:32:45.853Z,101321.44
2023-03-19T11:35:21.679Z,101330.25
2023-03-19T11:37:57.722Z,101212.13
2023-03-19T11:40:43.271Z,101339.91
2023-03-19T11:43:41.891Z,101335.41
2023-03-19T11:46:28.028Z,101343.31
2023-03-19T11:49:48.799Z,101349.38
2023-03-19T11:52:26.491Z,101357.38
2023-03-19T11:55:21.314Z,101353.91
2023-03-19T11:58:14.252Z,101254.28
2023-03-19T12:00:48.456Z,101346.78
2023-03-19T12:03:56.116Z,101351.19
2023-03-19T12:06:39.558Z,101355.63
2023-03-19T12:09:22.832Z,101358.22
2023-03-19T12:11:55.369Z,101351.03
2023-03-19T12:14:44.287Z,101340.47
2023-03-19T12:17:26.758Z,101341.25
2023-03-19T12:20:24.227Z,101336.91
2023-03-19T12:23:07.498Z,101342.19
2023-03-19T12:25:54.109Z,101347.59
2023-03-19T12:28:28.127Z,101352.03
2023-03-19T12:31:31.059Z,101358.25
2023-03-19T12:34:23.893Z,101348.50
2023-03-19T12:37:08.519Z,101365.19
2023-03-19T12:39:42.187Z,101368.63
2023-03-19T12:42:18.808Z,101356.13
2023-03-19T12:44:51.383Z,101341.81
2023-03-19T12:47:26.381Z,101354.84
2023-03-19T12:49:59.968Z,101361.88
2023-03-19T12:52:35.292Z,101368.84
2023-03-19T12:55:10.989Z,101379.28
2023-03-19T12:57:45.707Z,101381.88
2023-03-19T13:00:22.710Z,101395.22
2023-03-19T13:03:00.923Z,101398.03
2023-03-19T13:05:38.457Z,101411.19
2023-03-19T13:08:16.885Z,101376.81
2023-03-19T13:10:45.416Z,101403.03
2023-03-19T13:13:34.024Z,101320.25
2023-03-19T13:16:11.558Z,101396.88
2023-03-19T13:18:52.869Z,101395.22
2023-03-19T13:21:28.774Z,101389.94
2023-03-19T13:24:09.795Z,101381.06
2023-03-19T13:26:39.006Z,101401.44
2023-03-19T13:29:18.041Z,101402.53
2023-03-19T13:31:47.391Z,101392.00
2023-03-19T13:34:27.610Z,101393.88
2023-03-19T13:37:03.768Z,101402.72
2023-03-19T13:39:35.656Z,101370.16
2023-03-19T13:42:38.998Z,101406.41
2023-03-19T13:45:31.845Z,101414.34
2023-03-19T13:48:25.551Z,101418.03
2023-03-19T13:51:03.176Z,101424.28
2023-03-19T13:53:42.572Z,101429.56
2023-03-19T13:56:28.654Z,101431.34
2023-03-19T13:59:34.238Z,101433.28
2023-03-19T14:02:04.252Z,101438.66
2023-03-19T14:04:34.277Z,101435.19
2023-03-19T14:07:19.517Z,101367.44
2023-03-19T14:09:50.727Z,101360.50
2023-03-19T14:12:33.078Z,101441.56
2023-03-19T14:15:05.399Z,101444.22
2023-03-19T14:17:36.192Z,101436.28
2023-03-19T14:20:31.435Z,101436.28
2023-03-19T14:23:23.821Z,101437.25
2023-03-19T14:26:08.306Z,101337.56
2023-03-19T14:28:50.255Z,101438.22
2023-03-19T14:31:23.126Z,101452.41
2023-03-19T14:34:00.652Z,101460.41
2023-03-19T14:36:30.368Z,101464.81
2023-03-19T14:39:05.129Z,101457.66
2023-03-19T14:41:38.018Z,101372.03
2023-03-19T14:44:46.886Z,101457.56
2023-03-19T14:47:42.971Z,101469.09
2023-03-19T14:50:38.666Z,101471.72
2023-03-19T14:53:17.157Z,101436.41
2023-03-19T14:55:52.592Z,101463.72
2023-03-19T14:58:22.191Z,101466.44
2023-03-19T15:00:53.511Z,101458.47
2023-03-19T15:03:31.596Z,101463.84
2023-03-19T15:06:02.261Z,101471.16
2023-03-19T15:08:33.614Z,101474.84
2023-03-19T15:11:39.965Z,101467.84
2023-03-19T15:14:52.929Z,101460.72
2023-03-19T15:17:26.069Z,101458.94
2023-03-19T15:19:57.448Z,101456.38
2023-03-19T15:22:31.437Z,101469.59
2023-03-19T15:25:08.118Z,101469.50
2023-03-19T15:27:38.538Z,101465.13
2023-03-19T15:30:22.473Z,101479.28
2023-03-19T15:33:08.047Z,101473.97
2023-03-19T15:35:39.279Z,101465.13
2023-03-19T15:38:11.975Z,101468.75
2023-03-19T15:40:42.641Z,101460.88
2023-03-19T15:43:13.365Z,101465.25
2023-03-19T15:45:47.195Z,101477.59
2023-03-19T15:48:21.670Z,101480.22
2023-03-19T15:50:55.711Z,101496.09
2023-03-19T15:53:27.056Z,101495.22
2023-03-19T15:55:56.837Z,101507.66
2023-03-19T15:58:30.890Z,101514.75
2023-03-19T16:01:03.257Z,101512.97
2023-03-19T16:03:38.610Z,101514.75
2023-03-19T16:06:14.429Z,101548.38
2023-03-19T16:08:49.218Z,101521.84
2023-03-19T16:11:30.448Z,101533.34
2023-03-19T16:14:01.934Z,101549.28
2023-03-19T16:16:34.659Z,101536.88
2023-03-19T16:19:03.236Z,101536.88
2023-03-19T16:21:37.179Z,101533.31
2023-03-19T16:24:16.501Z,101539.50
2023-03-19T16:26:46.996Z,101546.47
2023-03-19T16:29:24.711Z,101556.16
2023-03-19T16:31:55.381Z,101554.38
2023-03-19T16:34:36.584Z,101563.19
2023-03-19T16:37:43.506Z,101565.84
2023-03-19T16:40:41.786Z,101568.44
2023-03-19T16:43:18.167Z,101576.41
2023-03-19T16:45:52.884Z,101573.72
2023-03-19T16:48:21.379Z,101567.59
2023-03-19T16:50:50.159Z,101579.91
2023-03-19T16:53:25.703Z,101575.41
2023-03-19T16:55:56.029Z,101596.56
2023-03-19T16:58:31.377Z,101593.94
2023-03-19T17:01:01.241Z,101606.31
2023-03-19T17:03:30.219Z,101601.84
2023-03-19T17:05:59.027Z,101614.13
2023-03-19T17:08:27.772Z,101609.72
2023-03-19T17:10:56.640Z,101621.13
2023-03-19T17:13:29.829Z,101607.94
2023-03-19T17:16:03.407Z,101612.22
2023-03-19T17:18:36.466Z,101628.16
2023-03-19T17:21:09.819Z,101629.91
2023-03-19T17:23:38.521Z,101635.19
2023-03-19T17:26:16.188Z,101638.63
2023-03-19T17:28:44.682Z,101640.53
2023-03-19T17:31:24.506Z,101654.66
2023-03-19T17:33:53.938Z,101653.00
2023-03-19T17:36:22.296Z,101649.28
2023-03-19T17:38:50.727Z,101658.16
2023-03-19T17:41:20.168Z,101669.66
2023-03-19T17:43:49.251Z,101669.72
2023-03-19T17:46:23.012Z,101672.00
2023-03-19T17:48:52.435Z,101654.31
2023-03-19T17:51:21.348Z,101662.25
2023-03-19T17:53:52.562Z,101555.00
2023-03-19T17:56:25.125Z,101691.34
2023-03-19T17:58:54.109Z,101673.81
2023-03-19T18:01:26.961Z,101688.88
2023-03-19T18:03:57.725Z,101688.75
2023-03-19T18:06:27.596Z,101693.94
2023-03-19T18:08:56.547Z,101694.88
2023-03-19T18:11:25.081Z,101704.63
2023-03-19T18:13:53.550Z,101701.97
2023-03-19T18:16:28.243Z,101704.78
2023-03-19T18:19:00.314Z,101709.09
2023-03-19T18:21:29.040Z,101704.88
2023-03-19T18:23:57.814Z,101718.91
2023-03-19T18:26:26.457Z,101720.63
2023-03-19T18:28:54.778Z,101712.63
2023-03-19T18:31:26.765Z,101705.66
2023-03-19T18:33:58.953Z,101733.09
2023-03-19T18:36:31.377Z,101741.88
2023-03-19T18:39:00.386Z,101737.53
2023-03-19T18:41:30.027Z,101731.22
2023-03-19T18:44:07.962Z,101748.06
2023-03-19T18:46:39.858Z,101744.69
2023-03-19T18:49:22.147Z,101641.94
2023-03-19T18:52:02.140Z,101749.31
2023-03-19T18:54:32.493Z,101750.16
2023-03-19T18:57:02.040Z,101755.47
2023-03-19T18:59:33.143Z,101752.81
2023-03-19T19:02:13.019Z,101745.72
2023-03-19T19:04:41.498Z,101748.34
2023-03-19T19:07:11.530Z,101749.25
2023-03-19T19:09:39.948Z,101752.81
2023-03-19T19:12:09.581Z,101753.72
2023-03-19T19:14:38.027Z,101751.13
2023-03-19T19:17:08.143Z,101747.63
2023-03-19T19:19:36.655Z,101752.97
2023-03-19T19:22:05.062Z,101751.97
2023-03-19T19:24:33.420Z,101755.59
2023-03-19T19:27:01.801Z,101755.47
2023-03-19T19:29:31.418Z,101756.41
2023-03-19T19:32:00.631Z,101760.00
2023-03-19T19:34:30.403Z,101768.84
2023-03-19T19:37:00.409Z,101766.25
2023-03-19T19:39:29.117Z,101761.84
2023-03-19T19:41:57.489Z,101773.41
2023-03-19T19:44:25.988Z,101778.66
2023-03-19T19:46:55.218Z,101791.94
2023-03-19T19:49:25.117Z,101789.28
2023-03-19T19:51:54.978Z,101776.91
2023-03-19T19:54:25.050Z,101792.00
2023-03-19T19:56:53.611Z,101799.09
2023-03-19T19:59:26.458Z,101797.34
2023-03-19T20:01:54.984Z,101799.97
2023-03-19T20:04:23.361Z,101807.06
2023-03-19T20:06:52.052Z,101807.06
2023-03-19T20:09:22.214Z,101805.28
2023-03-19T20:11:50.797Z,101804.38
2023-03-19T20:14:19.135Z,101804.44
2023-03-19T20:16:48.687Z,101806.19
2023-03-19T20:19:20.112Z,101807.97
2023-03-19T20:21:48.571Z,101783.19
2023-03-19T20:24:16.903Z,101806.25
2023-03-19T20:26:46.690Z,101779.69
2023-03-19T20:29:16.623Z,101798.38
2023-03-19T20:31:47.797Z,101805.50
2023-03-19T20:34:28.586Z,101795.78
2023-03-19T20:37:05.003Z,101803.75
2023-03-19T20:39:33.478Z,101813.50
2023-03-19T20:42:03.276Z,101810.84
2023-03-19T20:44:31.964Z,101801.16
2023-03-19T20:47:00.632Z,101804.69
2023-03-19T20:49:30.859Z,101802.91
2023-03-19T20:51:59.243Z,101805.59
2023-03-19T20:54:27.855Z,101804.69
2023-03-19T20:56:56.315Z,101795.84
2023-03-19T20:59:28.917Z,101802.97
2023-03-19T21:01:57.556Z,101794.13
2023-03-19T21:04:26.131Z,101705.44
2023-03-19T21:06:54.612Z,101797.63
2023-03-19T21:09:24.330Z,101791.44
2023-03-19T21:11:53.243Z,101758.63
2023-03-19T21:14:23.367Z,101795.88
2023-03-19T21:16:53.234Z,101790.56
2023-03-19T21:19:21.607Z,101768.41
2023-03-19T21:21:50.148Z,101793.22
2023-03-19T21:24:20.521Z,101683.31
2023-03-19T21:26:49.388Z,101802.06
2023-03-19T21:29:26.147Z,101790.53
2023-03-19T21:31:57.874Z,101782.56
2023-03-19T21:34:28.369Z,101769.25
2023-03-19T21:36:56.734Z,101802.03
2023-03-19T21:39:25.045Z,101806.44
2023-03-19T21:41:53.498Z,101784.31
2023-03-19T21:44:24.510Z,101799.31
2023-03-19T21:46:53.176Z,101808.16
2023-03-19T21:49:22.955Z,101799.34
2023-03-19T21:51:51.284Z,101804.63
2023-03-19T21:54:19.754Z,101802.84
2023-03-19T21:56:48.290Z,101804.59
2023-03-19T21:59:20.668Z,101812.56
2023-03-19T22:01:49.266Z,101781.56
2023-03-19T22:04:19.199Z,101808.16
2023-03-19T22:06:49.638Z,101815.25
2023-03-19T22:09:18.084Z,101816.13
2023-03-19T22:11:46.480Z,101822.31
2023-03-19T22:14:19.313Z,101816.13
2023-03-19T22:16:52.368Z,101822.31
2023-03-19T22:19:21.535Z,101821.47
2023-03-19T22:21:51.339Z,101832.06
2023-03-19T22:24:20.061Z,101823.22
2023-03-19T22:26:52.125Z,101824.97
2023-03-19T22:29:25.331Z,101830.28
2023-03-19T22:31:55.544Z,101825.84
2023-03-19T22:34:27.584Z,101796.47
2023-03-19T22:36:57.510Z,101821.34
2023-03-19T22:39:28.159Z,101835.50
2023-03-19T22:41:56.420Z,101840.81
2023-03-19T22:44:29.460Z,101844.25
2023-03-19T22:46:59.616Z,101846.91
2023-03-19T22:49:29.995Z,101853.09
2023-03-19T22:51:59.930Z,101843.41
2023-03-19T22:54:28.367Z,101713.03
2023-03-19T22:56:56.818Z,101841.53
2023-03-19T22:59:25.441Z,101845.91
2023-03-19T23:01:54.008Z,101840.53
2023-03-19T23:04:25.474Z,101842.28
2023-03-19T23:06:56.365Z,101847.56
2023-03-19T23:09:27.588Z,101850.19
2023-03-19T23:11:57.876Z,101848.41
2023-03-19T23:14:30.914Z,101830.78
2023-03-19T23:17:03.329Z,101846.72
2023-03-19T23:19:34.406Z,101844.88
2023-03-19T23:22:05.157Z,101843.91
2023-03-19T23:24:35.201Z,101823.50
2023-03-19T23:27:04.263Z,101852.75
2023-03-19T23:29:36.657Z,101841.22
2023-03-19T23:32:05.963Z,101833.25
2023-03-19T23:34:42.332Z,101833.22
2023-03-19T23:37:14.293Z,101829.69
2023-03-19T23:39:43.998Z,101811.06
2023-03-19T23:42:25.325Z,101828.69
2023-03-19T23:44:57.603Z,101826.03
2023-03-19T23:47:26.293Z,101825.19
2023-03-19T23:49:54.672Z,101818.16
2023-03-19T23:52:22.988Z,101778.19
2023-03-19T23:54:53.464Z,101804.84
2023-03-19T23:57:26.529Z,101801.25
2023-03-19T23:59:55.194Z,101800.34
